sensor_id;sensor_type;location;lat;lon;timestamp;P1;durP1;ratioP1;P2;durP2;ratioP2
1523;SDS011;755;53.658;10.118;2022-12-29T00:09:35;7.60;;;4.85;;
1523;SDS011;755;53.658;10.118;2022-12-29T00:19:37;6.88;;;4.43;;
1523;SDS011;755;53.658;10.118;2022-12-29T00:29:59;10.20;;;5.00;;
1523;SDS011;755;53.658;10.118;2022-12-29T00:40:18;7.65;;;5.53;;
1523;SDS011;755;53.658;10.118;2022-12-29T00:50:39;7.97;;;5.32;;
1523;SDS011;755;53.658;10.118;2022-12-29T01:00:41;12.52;;;6.80;;
1523;SDS011;755;53.658;10.118;2022-12-29T01:10:44;9.85;;;6.25;;
1523;SDS011;755;53.658;10.118;2022-12-29T01:20:47;11.32;;;6.45;;
1523;SDS011;755;53.658;10.118;2022-12-29T01:30:50;14.07;;;7.15;;
1523;SDS011;755;53.658;10.118;2022-12-29T01:40:53;12.10;;;5.80;;
1523;SDS011;755;53.658;10.118;2022-12-29T01:50:56;8.45;;;5.75;;
1523;SDS011;755;53.658;10.118;2022-12-29T02:00:58;9.80;;;6.07;;
1523;SDS011;755;53.658;10.118;2022-12-29T02:11:02;8.05;;;5.30;;
1523;SDS011;755;53.658;10.118;2022-12-29T02:21:24;12.68;;;6.97;;
1523;SDS011;755;53.658;10.118;2022-12-29T02:31:41;9.13;;;7.10;;
1523;SDS011;755;53.658;10.118;2022-12-29T02:41:53;15.35;;;9.05;;
1523;SDS011;755;53.658;10.118;2022-12-29T02:52:05;10.15;;;6.80;;
1523;SDS011;755;53.658;10.118;2022-12-29T03:02:30;9.05;;;5.60;;
1523;SDS011;755;53.658;10.118;2022-12-29T03:13:02;11.75;;;5.55;;
1523;SDS011;755;53.658;10.118;2022-12-29T03:23:28;8.75;;;5.55;;
1523;SDS011;755;53.658;10.118;2022-12-29T03:33:35;7.07;;;5.15;;
1523;SDS011;755;53.658;10.118;2022-12-29T03:43:39;7.90;;;5.38;;
1523;SDS011;755;53.658;10.118;2022-12-29T03:53:45;9.65;;;4.65;;
1523;SDS011;755;53.658;10.118;2022-12-29T04:03:47;9.65;;;5.43;;
1523;SDS011;755;53.658;10.118;2022-12-29T04:13:51;9.70;;;4.78;;
1523;SDS011;755;53.658;10.118;2022-12-29T04:23:53;8.15;;;4.45;;
1523;SDS011;755;53.658;10.118;2022-12-29T04:33:57;7.80;;;3.25;;
1523;SDS011;755;53.658;10.118;2022-12-29T04:44:00;6.00;;;3.38;;
1523;SDS011;755;53.658;10.118;2022-12-29T04:54:03;4.07;;;2.63;;
1523;SDS011;755;53.658;10.118;2022-12-29T05:04:06;7.78;;;2.63;;
1523;SDS011;755;53.658;10.118;2022-12-29T05:14:10;3.00;;;2.53;;
1523;SDS011;755;53.658;10.118;2022-12-29T05:24:12;3.58;;;2.40;;
1523;SDS011;755;53.658;10.118;2022-12-29T05:34:15;3.88;;;2.70;;
1523;SDS011;755;53.658;10.118;2022-12-29T05:44:18;6.15;;;2.97;;
1523;SDS011;755;53.658;10.118;2022-12-29T05:54:21;6.15;;;3.50;;
1523;SDS011;755;53.658;10.118;2022-12-29T06:04:23;4.00;;;2.47;;
1523;SDS011;755;53.658;10.118;2022-12-29T06:14:27;3.10;;;2.55;;
1523;SDS011;755;53.658;10.118;2022-12-29T06:24:29;3.53;;;2.78;;
1523;SDS011;755;53.658;10.118;2022-12-29T06:34:33;3.08;;;2.47;;
1523;SDS011;755;53.658;10.118;2022-12-29T06:44:35;3.33;;;2.47;;
1523;SDS011;755;53.658;10.118;2022-12-29T06:54:38;5.45;;;2.15;;
1523;SDS011;755;53.658;10.118;2022-12-29T07:04:40;4.28;;;2.35;;
1523;SDS011;755;53.658;10.118;2022-12-29T07:14:44;4.40;;;2.20;;
1523;SDS011;755;53.658;10.118;2022-12-29T07:24:47;7.35;;;2.40;;
1523;SDS011;755;53.658;10.118;2022-12-29T07:34:50;3.88;;;2.22;;
1523;SDS011;755;53.658;10.118;2022-12-29T07:44:53;3.70;;;2.60;;
1523;SDS011;755;53.658;10.118;2022-12-29T07:54:56;4.63;;;2.58;;
1523;SDS011;755;53.658;10.118;2022-12-29T08:04:58;3.58;;;2.83;;
1523;SDS011;755;53.658;10.118;2022-12-29T08:15:02;7.97;;;2.67;;
1523;SDS011;755;53.658;10.118;2022-12-29T08:25:05;7.28;;;2.33;;
1523;SDS011;755;53.658;10.118;2022-12-29T08:35:09;1.85;;;1.48;;
1523;SDS011;755;53.658;10.118;2022-12-29T08:45:13;2.85;;;1.92;;
1523;SDS011;755;53.658;10.118;2022-12-29T08:55:17;9.27;;;2.35;;
1523;SDS011;755;53.658;10.118;2022-12-29T09:05:19;3.05;;;1.73;;
1523;SDS011;755;53.658;10.118;2022-12-29T09:15:23;2.78;;;1.63;;
1523;SDS011;755;53.658;10.118;2022-12-29T09:25:25;5.50;;;1.38;;
1523;SDS011;755;53.658;10.118;2022-12-29T09:35:30;11.48;;;1.75;;
1523;SDS011;755;53.658;10.118;2022-12-29T09:45:34;3.63;;;0.93;;
1523;SDS011;755;53.658;10.118;2022-12-29T09:55:44;5.70;;;0.80;;
1523;SDS011;755;53.658;10.118;2022-12-29T10:05:53;4.68;;;1.48;;
1523;SDS011;755;53.658;10.118;2022-12-29T10:16:07;11.27;;;1.67;;
1523;SDS011;755;53.658;10.118;2022-12-29T10:26:15;7.25;;;1.05;;
1523;SDS011;755;53.658;10.118;2022-12-29T10:36:30;8.93;;;0.70;;
1523;SDS011;755;53.658;10.118;2022-12-29T10:46:37;5.32;;;0.80;;
1523;SDS011;755;53.658;10.118;2022-12-29T10:56:42;8.90;;;1.17;;
1523;SDS011;755;53.658;10.118;2022-12-29T11:06:46;2.67;;;0.90;;
1523;SDS011;755;53.658;10.118;2022-12-29T11:16:57;6.88;;;1.40;;
1523;SDS011;755;53.658;10.118;2022-12-29T11:27:08;12.40;;;2.25;;
1523;SDS011;755;53.658;10.118;2022-12-29T11:37:19;6.50;;;0.88;;
1523;SDS011;755;53.658;10.118;2022-12-29T11:47:28;10.77;;;0.95;;
1523;SDS011;755;53.658;10.118;2022-12-29T11:57:33;2.88;;;0.68;;
1523;SDS011;755;53.658;10.118;2022-12-29T12:07:41;2.08;;;0.90;;
1523;SDS011;755;53.658;10.118;2022-12-29T12:17:48;5.43;;;0.77;;
1523;SDS011;755;53.658;10.118;2022-12-29T12:27:55;3.88;;;0.85;;
1523;SDS011;755;53.658;10.118;2022-12-29T12:38:08;3.80;;;0.80;;
1523;SDS011;755;53.658;10.118;2022-12-29T12:59:02;7.60;;;1.30;;
1523;SDS011;755;53.658;10.118;2022-12-29T13:30:04;4.93;;;0.75;;
1523;SDS011;755;53.658;10.118;2022-12-29T13:40:13;10.40;;;1.13;;
1523;SDS011;755;53.658;10.118;2022-12-29T13:50:24;6.78;;;1.05;;
1523;SDS011;755;53.658;10.118;2022-12-29T14:00:31;4.22;;;0.88;;
1523;SDS011;755;53.658;10.118;2022-12-29T14:10:45;13.32;;;1.20;;
1523;SDS011;755;53.658;10.118;2022-12-29T15:15:56;12.52;;;1.98;;
1523;SDS011;755;53.658;10.118;2022-12-29T15:25:59;35.17;;;13.00;;
1523;SDS011;755;53.658;10.118;2022-12-29T15:36:05;8.63;;;1.50;;
1523;SDS011;755;53.658;10.118;2022-12-29T15:46:12;4.63;;;1.40;;
1523;SDS011;755;53.658;10.118;2022-12-29T15:56:16;9.07;;;1.20;;
1523;SDS011;755;53.658;10.118;2022-12-29T16:06:26;4.85;;;1.13;;
1523;SDS011;755;53.658;10.118;2022-12-29T16:16:31;8.20;;;1.45;;
1523;SDS011;755;53.658;10.118;2022-12-29T16:26:37;13.25;;;2.03;;
1523;SDS011;755;53.658;10.118;2022-12-29T16:36:51;14.63;;;1.92;;
1523;SDS011;755;53.658;10.118;2022-12-29T16:47:05;11.48;;;2.08;;
1523;SDS011;755;53.658;10.118;2022-12-29T16:57:27;11.38;;;3.42;;
1523;SDS011;755;53.658;10.118;2022-12-29T17:07:31;9.18;;;3.30;;
1523;SDS011;755;53.658;10.118;2022-12-29T17:17:35;11.40;;;3.60;;
1523;SDS011;755;53.658;10.118;2022-12-29T17:27:40;19.80;;;3.30;;
1523;SDS011;755;53.658;10.118;2022-12-29T17:37:46;13.80;;;3.25;;
1523;SDS011;755;53.658;10.118;2022-12-29T17:47:48;12.40;;;3.30;;
1523;SDS011;755;53.658;10.118;2022-12-29T17:57:52;11.40;;;4.22;;
1523;SDS011;755;53.658;10.118;2022-12-29T18:07:54;18.60;;;3.78;;
1523;SDS011;755;53.658;10.118;2022-12-29T18:18:01;14.52;;;3.72;;
1523;SDS011;755;53.658;10.118;2022-12-29T18:28:10;15.75;;;3.45;;
1523;SDS011;755;53.658;10.118;2022-12-29T18:38:13;14.13;;;3.03;;
1523;SDS011;755;53.658;10.118;2022-12-29T18:48:16;15.82;;;3.65;;
1523;SDS011;755;53.658;10.118;2022-12-29T18:58:20;19.70;;;3.83;;
1523;SDS011;755;53.658;10.118;2022-12-29T19:08:22;13.18;;;3.40;;
1523;SDS011;755;53.658;10.118;2022-12-29T19:18:26;19.80;;;4.68;;
1523;SDS011;755;53.658;10.118;2022-12-29T19:28:28;15.45;;;4.72;;
1523;SDS011;755;53.658;10.118;2022-12-29T19:38:32;19.75;;;5.57;;
1523;SDS011;755;53.658;10.118;2022-12-29T19:48:34;20.90;;;4.80;;
1523;SDS011;755;53.658;10.118;2022-12-29T20:09:02;17.00;;;4.00;;
1523;SDS011;755;53.658;10.118;2022-12-29T20:19:07;3.88;;;1.77;;
1523;SDS011;755;53.658;10.118;2022-12-29T20:29:10;7.68;;;1.92;;
1523;SDS011;755;53.658;10.118;2022-12-29T20:39:15;8.93;;;2.95;;
1523;SDS011;755;53.658;10.118;2022-12-29T20:49:19;3.28;;;1.58;;
1523;SDS011;755;53.658;10.118;2022-12-29T20:59:23;4.45;;;1.27;;
1523;SDS011;755;53.658;10.118;2022-12-29T21:09:29;8.63;;;1.50;;
1523;SDS011;755;53.658;10.118;2022-12-29T21:19:33;13.30;;;1.42;;
1523;SDS011;755;53.658;10.118;2022-12-29T21:29:36;10.73;;;1.85;;
1523;SDS011;755;53.658;10.118;2022-12-29T21:39:40;6.50;;;0.80;;
1523;SDS011;755;53.658;10.118;2022-12-29T21:49:42;16.52;;;4.78;;
1523;SDS011;755;53.658;10.118;2022-12-29T21:59:46;4.75;;;1.55;;
1523;SDS011;755;53.658;10.118;2022-12-29T22:10:06;6.60;;;1.17;;
1523;SDS011;755;53.658;10.118;2022-12-29T22:20:28;8.23;;;1.38;;
1523;SDS011;755;53.658;10.118;2022-12-29T22:30:32;12.65;;;1.70;;
1523;SDS011;755;53.658;10.118;2022-12-29T22:40:36;4.53;;;0.90;;
1523;SDS011;755;53.658;10.118;2022-12-29T22:50:38;10.38;;;2.10;;
1523;SDS011;755;53.658;10.118;2022-12-29T23:00:42;18.25;;;3.10;;
1523;SDS011;755;53.658;10.118;2022-12-29T23:10:44;5.38;;;1.60;;
1523;SDS011;755;53.658;10.118;2022-12-29T23:20:48;16.23;;;2.30;;
1523;SDS011;755;53.658;10.118;2022-12-29T23:30:51;8.93;;;2.83;;
1523;SDS011;755;53.658;10.118;2022-12-29T23:40:54;15.45;;;2.35;;
1523;SDS011;755;53.658;10.118;2022-12-29T23:50:57;15.02;;;2.22;;
